Time;durP1;ratioP1;P1;durP2;ratioP2;P2;SDS_P1;SDS_P2;PMS_P1;PMS_P2;Temp;Humidity;BMP_temperature;BMP_pressure;BME280_temperature;BME280_humidity;BME280_pressure;Samples;Min_cycle;Max_cycle;Signal;HPM_P1;HPM_P2
2023/11/04 00:00:15;;;;;;;19.75;11.15;;;;;;;15.76;100.00;98604.66;5119236;27;20039;-63
2023/11/04 00:02:41;;;;;;;25.52;11.23;;;;;;;15.74;100.00;98620.06;5119648;27;20027;-63
2023/11/04 00:05:07;;;;;;;17.25;9.88;;;;;;;15.55;100.00;98633.34;5118645;27;20032;-62
2023/11/04 00:07:32;;;;;;;17.80;9.50;;;;;;;15.63;100.00;98643.78;5118495;27;20035;-63
2023/11/04 00:09:59;;;;;;;21.98;9.75;;;;;;;15.63;100.00;98659.78;5119397;27;20038;-64
2023/11/04 00:12:24;;;;;;;17.67;9.27;;;;;;;15.69;100.00;98660.75;5120260;27;20039;-62
2023/11/04 00:14:50;;;;;;;17.88;8.35;;;;;;;15.66;100.00;98649.72;5119921;27;20032;-63
2023/11/04 00:17:15;;;;;;;13.15;7.72;;;;;;;15.68;100.00;98655.66;5119078;27;20411;-64
2023/11/04 00:19:41;;;;;;;13.55;7.15;;;;;;;15.79;100.00;98661.06;5119481;27;20088;-62
2023/11/04 00:22:06;;;;;;;13.45;6.88;;;;;;;15.88;100.00;98637.56;5118323;27;20044;-62
2023/11/04 00:24:32;;;;;;;12.07;7.53;;;;;;;15.85;100.00;98643.34;5118522;27;20031;-63
2023/11/04 00:26:59;;;;;;;13.27;7.40;;;;;;;15.93;100.00;98659.88;5118104;27;20349;-63
2023/11/04 00:29:24;;;;;;;12.60;6.78;;;;;;;15.87;100.00;98634.09;5118087;27;20043;-64
2023/11/04 00:31:50;;;;;;;12.95;6.50;;;;;;;16.01;100.00;98617.91;5118343;27;20062;-62
2023/11/04 00:34:15;;;;;;;12.25;5.82;;;;;;;16.11;100.00;98637.69;5118456;27;20051;-62
2023/11/04 00:36:41;;;;;;;14.73;5.68;;;;;;;16.02;100.00;98616.88;5118366;27;20043;-62
2023/11/04 00:39:06;;;;;;;12.05;5.25;;;;;;;16.00;100.00;98614.41;5118502;28;20504;-63
2023/11/04 00:41:32;;;;;;;11.50;5.78;;;;;;;16.03;100.00;98629.19;5118946;27;20049;-63
2023/11/04 00:43:58;;;;;;;10.20;4.55;;;;;;;16.19;100.00;98567.13;5119500;27;20064;-62
2023/11/04 00:46:25;;;;;;;10.98;4.45;;;;;;;16.26;100.00;98581.22;5119621;27;20040;-63
2023/11/04 00:48:50;;;;;;;7.07;4.13;;;;;;;16.31;100.00;98607.25;5118903;28;20500;-65
2023/11/04 00:51:16;;;;;;;7.28;4.03;;;;;;;16.47;100.00;98556.66;5117468;28;20046;-63
2023/11/04 00:53:42;;;;;;;7.85;3.10;;;;;;;16.64;100.00;98547.97;5117757;27;20059;-63
2023/11/04 00:56:08;;;;;;;9.15;3.35;;;;;;;16.76;100.00;98556.88;5117896;27;20055;-63
2023/11/04 00:58:33;;;;;;;4.95;3.47;;;;;;;16.83;100.00;98571.75;5117833;28;20094;-64
2023/11/04 01:00:58;;;;;;;7.25;3.53;;;;;;;16.95;100.00;98573.63;5117431;28;20040;-63
2023/11/04 01:03:24;;;;;;;8.57;3.72;;;;;;;16.92;100.00;98564.22;5117610;28;20036;-64
2023/11/04 01:05:50;;;;;;;6.88;3.92;;;;;;;16.82;100.00;98583.50;5117517;28;20337;-64
2023/11/04 01:08:15;;;;;;;8.20;3.47;;;;;;;16.79;100.00;98586.63;5117352;28;20035;-63
2023/11/04 01:10:41;;;;;;;8.27;3.78;;;;;;;16.77;100.00;98590.59;5117383;28;20036;-64
2023/11/04 01:13:07;;;;;;;9.05;4.65;;;;;;;16.78;100.00;98610.94;5118547;28;20535;-63
2023/11/04 01:15:33;;;;;;;6.15;4.18;;;;;;;16.87;100.00;98574.78;5116825;28;20222;-64
2023/11/04 01:17:59;;;;;;;10.75;5.55;;;;;;;16.97;100.00;98619.69;5116813;28;20057;-63
2023/11/04 01:20:24;;;;;;;13.45;9.00;;;;;;;16.81;100.00;98573.03;5117325;28;20060;-64
2023/11/04 01:22:50;;;;;;;15.23;8.30;;;;;;;16.60;100.00;98577.00;5117266;28;20036;-63
2023/11/04 01:25:15;;;;;;;20.65;9.95;;;;;;;16.70;100.00;98585.34;5118060;28;20043;-64
2023/11/04 01:27:41;;;;;;;15.90;10.10;;;;;;;16.63;100.00;98571.22;5116949;28;20070;-64
2023/11/04 01:30:07;;;;;;;18.52;9.90;;;;;;;16.65;100.00;98555.81;5116337;28;20140;-63
2023/11/04 01:32:33;;;;;;;19.75;9.55;;;;;;;16.58;100.00;98547.84;5116821;28;20126;-63
2023/11/04 01:34:59;;;;;;;20.17;10.82;;;;;;;16.64;100.00;98550.63;5116923;28;20039;-63
2023/11/04 01:37:25;;;;;;;23.10;11.00;;;;;;;16.70;100.00;98549.78;5117635;28;20416;-62
2023/11/04 01:39:52;;;;;;;19.80;10.82;;;;;;;16.74;100.00;98551.75;5118455;28;20032;-63
2023/11/04 01:42:17;;;;;;;19.23;9.85;;;;;;;16.79;100.00;98545.72;5117241;28;20044;-62
2023/11/04 01:44:43;;;;;;;19.98;9.57;;;;;;;16.78;100.00;98554.78;5117623;28;20244;-62
2023/11/04 01:47:09;;;;;;;22.58;10.60;;;;;;;16.83;100.00;98577.13;5119298;27;20035;-62
2023/11/04 01:49:35;;;;;;;17.58;10.02;;;;;;;16.84;100.00;98588.63;5121085;27;20131;-62
2023/11/04 01:52:02;;;;;;;21.10;11.30;;;;;;;16.80;100.00;98580.25;5121535;27;20127;-63
2023/11/04 01:54:28;;;;;;;20.60;10.52;;;;;;;16.64;100.00;98542.63;5117675;27;20051;-63
2023/11/04 01:56:54;;;;;;;24.38;11.05;;;;;;;16.07;100.00;98496.84;5121082;27;20058;-63
2023/11/04 01:59:22;;;;;;;23.83;12.13;;;;;;;15.56;100.00;98452.72;5121917;27;20031;-62
2023/11/04 02:01:48;;;;;;;22.60;12.13;;;;;;;15.46;100.00;98455.94;5121799;27;20061;-62
2023/11/04 02:04:14;;;;;;;24.75;12.20;;;;;;;15.30;100.00;98457.34;5121072;27;20122;-62
2023/11/04 02:06:40;;;;;;;26.42;11.65;;;;;;;15.26;100.00;98453.50;5122146;27;20313;-63
2023/11/04 02:09:06;;;;;;;18.55;11.35;;;;;;;15.37;100.00;98437.78;5122041;27;20042;-62
2023/11/04 02:11:32;;;;;;;23.33;10.45;;;;;;;15.26;100.00;98431.38;5122080;27;20050;-62
2023/11/04 02:13:57;;;;;;;19.50;11.05;;;;;;;15.39;100.00;98430.38;5120757;27;20027;-62
2023/11/04 02:16:22;;;;;;;18.50;8.32;;;;;;;15.17;100.00;98432.72;5120816;27;20040;-62
2023/11/04 02:18:48;;;;;;;18.30;9.88;;;;;;;15.22;100.00;98446.19;5120873;27;20032;-63
2023/11/04 02:21:14;;;;;;;16.63;9.55;;;;;;;15.17;100.00;98454.84;5121936;27;20028;-63
2023/11/04 02:23:40;;;;;;;20.75;9.95;;;;;;;15.22;100.00;98449.66;5120789;27;20222;-64
2023/11/04 02:26:06;;;;;;;19.67;8.98;;;;;;;15.23;100.00;98456.63;5119946;27;20035;-63
2023/11/04 02:28:31;;;;;;;20.98;10.48;;;;;;;15.32;100.00;98449.13;5119909;27;20028;-64
2023/11/04 02:30:58;;;;;;;18.33;9.00;;;;;;;15.49;100.00;98444.81;5119533;27;20361;-65
2023/11/04 02:33:23;;;;;;;15.68;9.00;;;;;;;15.69;100.00;98455.28;5119826;27;20035;-63
2023/11/04 02:35:49;;;;;;;15.80;9.00;;;;;;;15.80;100.00;98448.38;5120146;27;20028;-63
2023/11/04 02:38:15;;;;;;;17.67;9.15;;;;;;;15.85;100.00;98468.00;5119429;27;20054;-64
2023/11/04 02:40:40;;;;;;;18.75;8.73;;;;;;;15.94;100.00;98482.66;5118996;27;20027;-64
2023/11/04 02:43:06;;;;;;;16.98;8.98;;;;;;;15.98;100.00;98488.34;5119307;27;20317;-64
2023/11/04 02:45:32;;;;;;;15.35;8.25;;;;;;;16.01;100.00;98484.41;5118940;27;20043;-63
2023/11/04 02:47:57;;;;;;;13.65;8.45;;;;;;;16.05;100.00;98478.38;5120631;27;20037;-64
2023/11/04 02:50:23;;;;;;;15.95;8.73;;;;;;;16.13;100.00;98474.56;5120485;27;20031;-64
2023/11/04 02:52:48;;;;;;;15.10;7.97;;;;;;;16.04;100.00;98475.94;5120585;27;20178;-64
2023/11/04 02:55:13;;;;;;;16.40;8.15;;;;;;;15.95;100.00;98472.78;5120593;27;20051;-64
2023/11/04 02:57:39;;;;;;;16.25;8.40;;;;;;;15.96;100.00;98490.44;5119441;27;20105;-64
2023/11/04 03:00:05;;;;;;;16.40;7.35;;;;;;;15.98;100.00;98482.19;5119898;27;20099;-64
2023/11/04 03:02:31;;;;;;;17.35;7.95;;;;;;;16.02;100.00;98488.72;5120656;27;20325;-64
2023/11/04 03:04:56;;;;;;;14.13;8.23;;;;;;;16.16;100.00;98484.81;5120040;27;20066;-63
2023/11/04 03:07:22;;;;;;;13.25;7.32;;;;;;;16.22;100.00;98523.94;5120882;27;20337;-64
2023/11/04 03:09:47;;;;;;;13.20;7.47;;;;;;;16.36;100.00;98511.22;5119903;27;20046;-63
2023/11/04 03:12:13;;;;;;;13.27;6.68;;;;;;;16.34;100.00;98511.44;5119073;27;20043;-64
2023/11/04 03:14:43;;;;;;;14.00;6.72;;;;;;;16.36;100.00;98513.88;5119858;27;20030;-64
2023/11/04 03:17:08;;;;;;;13.23;7.68;;;;;;;16.44;100.00;98511.69;5119026;27;20043;-64
2023/11/04 03:19:34;;;;;;;17.85;7.38;;;;;;;16.46;100.00;98532.84;5119619;27;20038;-64
2023/11/04 03:21:59;;;;;;;15.27;7.35;;;;;;;16.54;100.00;98553.88;5120061;27;20046;-65
2023/11/04 03:24:24;;;;;;;14.02;7.88;;;;;;;16.60;100.00;98535.06;5115754;27;20043;-63
2023/11/04 03:26:51;;;;;;;12.52;7.25;;;;;;;16.59;100.00;98552.16;5119733;27;20350;-63
2023/11/04 03:29:17;;;;;;;15.70;7.93;;;;;;;16.62;100.00;98489.41;5119638;27;20055;-64
2023/11/04 03:31:42;;;;;;;17.00;8.50;;;;;;;16.29;100.00;98426.66;5118970;27;20042;-64
2023/11/04 03:34:09;;;;;;;17.30;7.32;;;;;;;15.95;100.00;98467.44;5120465;27;20046;-64
2023/11/04 03:36:34;;;;;;;14.75;7.50;;;;;;;15.68;100.00;98471.53;5119072;27;20046;-64
2023/11/04 03:39:00;;;;;;;15.23;7.63;;;;;;;15.66;100.00;98453.06;5119301;27;20039;-64
2023/11/04 03:41:25;;;;;;;14.18;7.60;;;;;;;15.67;100.00;98470.72;5119094;27;20058;-63
2023/11/04 03:43:51;;;;;;;16.48;8.10;;;;;;;15.50;100.00;98501.66;5120820;27;20038;-65
2023/11/04 03:46:16;;;;;;;13.30;6.68;;;;;;;15.48;100.00;98482.38;5121350;27;20032;-64
2023/11/04 03:48:42;;;;;;;14.80;6.30;;;;;;;15.48;100.00;98453.03;5118942;27;20039;-64
2023/11/04 03:51:10;;;;;;;12.73;6.60;;;;;;;15.56;100.00;98464.22;5118627;27;20027;-64
2023/11/04 03:53:36;;;;;;;9.68;6.03;;;;;;;15.59;100.00;98444.31;5118526;27;20027;-64
2023/11/04 03:56:02;;;;;;;9.35;4.93;;;;;;;15.53;100.00;98415.84;5120035;27;20255;-65
2023/11/04 03:58:27;;;;;;;12.25;5.15;;;;;;;15.54;100.00;98414.78;5119874;27;20054;-64
2023/11/04 04:00:53;;;;;;;6.85;4.60;;;;;;;15.45;100.00;98398.28;5119227;27;20031;-65
2023/11/04 04:03:18;;;;;;;9.00;4.40;;;;;;;15.53;100.00;98395.31;5120162;27;20054;-62
2023/11/04 04:05:44;;;;;;;8.02;4.80;;;;;;;15.49;100.00;98372.78;5118594;27;20031;-62
2023/11/04 04:08:09;;;;;;;9.20;5.40;;;;;;;15.34;100.00;98370.53;5119092;27;20034;-62
2023/11/04 04:10:36;;;;;;;10.20;5.47;;;;;;;15.36;100.00;98385.50;5117856;27;20068;-63
2023/11/04 04:13:01;;;;;;;10.63;5.28;;;;;;;15.39;100.00;98398.38;5118856;27;20260;-63
2023/11/04 04:15:27;;;;;;;8.25;4.50;;;;;;;15.38;100.00;98386.09;5118250;27;20043;-63
2023/11/04 04:17:52;;;;;;;11.98;5.15;;;;;;;15.43;100.00;98364.88;5118507;27;20067;-63
2023/11/04 04:20:20;;;;;;;10.07;4.68;;;;;;;15.45;100.00;98354.78;5118480;27;20032;-63
2023/11/04 04:22:45;;;;;;;8.48;4.43;;;;;;;15.60;100.00;98345.38;5118303;27;20042;-63
2023/11/04 04:25:11;;;;;;;12.70;4.85;;;;;;;15.81;100.00;98362.72;5119250;27;20039;-64
2023/11/04 04:27:37;;;;;;;7.68;4.57;;;;;;;15.91;100.00;98343.47;5118405;27;20054;-63
2023/11/04 04:30:04;;;;;;;8.45;5.18;;;;;;;15.96;100.00;98335.59;5118264;27;20344;-64
2023/11/04 04:32:30;;;;;;;9.55;4.97;;;;;;;15.93;100.00;98352.06;5108834;27;20107;-63
2023/11/04 04:34:56;;;;;;;10.60;4.35;;;;;;;15.94;100.00;98375.88;5119897;27;20256;-63
2023/11/04 04:37:23;;;;;;;6.13;2.85;;;;;;;15.84;100.00;98402.31;5118716;27;20052;-63
2023/11/04 04:39:48;;;;;;;3.80;2.40;;;;;;;15.96;100.00;98416.50;5118437;27;20039;-63
2023/11/04 04:42:14;;;;;;;6.28;2.80;;;;;;;16.12;100.00;98416.88;5117419;28;20043;-64
2023/11/04 04:44:39;;;;;;;5.05;3.10;;;;;;;16.21;100.00;98428.84;5117611;27;20026;-63
2023/11/04 04:47:05;;;;;;;6.13;2.67;;;;;;;16.27;100.00;98470.66;5118580;27;20032;-63
2023/11/04 04:49:30;;;;;;;4.80;2.83;;;;;;;16.15;100.00;98467.97;5117664;27;20039;-63
2023/11/04 04:51:55;;;;;;;5.28;2.45;;;;;;;16.21;100.00;98389.59;5117675;27;20032;-64
2023/11/04 04:54:21;;;;;;;4.57;2.75;;;;;;;16.14;100.00;98377.41;5119269;27;20043;-64
2023/11/04 04:56:46;;;;;;;7.43;3.25;;;;;;;16.02;100.00;98428.13;5118138;28;20035;-64
2023/11/04 04:59:12;;;;;;;5.75;3.58;;;;;;;15.94;100.00;98423.09;5118594;28;20207;-64
2023/11/04 05:01:38;;;;;;;8.80;4.40;;;;;;;15.76;100.00;98418.66;5119331;28;20368;-64
2023/11/04 05:04:04;;;;;;;6.88;3.70;;;;;;;15.92;100.00;98460.69;5118444;28;20036;-64
2023/11/04 05:06:29;;;;;;;7.43;4.45;;;;;;;16.11;100.00;98450.78;5118154;28;20385;-64
2023/11/04 05:08:55;;;;;;;6.90;3.65;;;;;;;15.92;100.00;98351.25;5117331;28;20053;-64
2023/11/04 05:11:21;;;;;;;5.13;2.65;;;;;;;15.43;100.00;98269.66;5117913;28;20031;-63
2023/11/04 05:13:46;;;;;;;5.88;3.13;;;;;;;15.23;100.00;98259.31;5118596;28;20237;-62
2023/11/04 05:16:12;;;;;;;10.73;4.15;;;;;;;15.23;100.00;98277.16;5117721;28;20034;-63
2023/11/04 05:18:37;;;;;;;7.38;3.38;;;;;;;15.22;100.00;98278.19;5118557;28;20036;-65
2023/11/04 05:21:03;;;;;;;6.38;3.42;;;;;;;15.15;100.00;98237.47;5117798;28;20042;-64
2023/11/04 05:23:31;;;;;;;5.43;3.72;;;;;;;15.07;100.00;98267.94;5121467;27;20058;-64
2023/11/04 05:25:57;;;;;;;6.43;4.90;;;;;;;15.07;100.00;98280.47;5121931;27;20107;-64
2023/11/04 05:28:23;;;;;;;7.68;4.57;;;;;;;15.11;100.00;98294.97;5120867;27;20031;-64
2023/11/04 05:30:49;;;;;;;11.50;4.82;;;;;;;15.13;100.00;98304.38;5120824;27;20039;-64
2023/11/04 05:33:16;;;;;;;9.95;5.20;;;;;;;15.08;100.00;98303.41;5121033;27;20042;-63
2023/11/04 05:35:42;;;;;;;10.25;5.35;;;;;;;15.02;100.00;98331.78;5122125;27;20023;-63
2023/11/04 05:38:09;;;;;;;10.63;6.03;;;;;;;15.08;100.00;98298.91;5121379;27;20110;-64
2023/11/04 05:40:35;;;;;;;13.45;5.47;;;;;;;15.14;100.00;98276.66;5120126;27;20400;-63
2023/11/04 05:43:00;;;;;;;10.18;5.45;;;;;;;15.19;100.00;98286.66;5120299;27;20044;-64
2023/11/04 05:45:25;;;;;;;10.77;4.72;;;;;;;15.13;100.00;98284.88;5121157;27;20039;-64
2023/11/04 05:47:51;;;;;;;8.32;5.05;;;;;;;15.02;100.00;98265.97;5121487;27;20033;-63
2023/11/04 05:50:16;;;;;;;6.88;4.80;;;;;;;15.00;100.00;98285.88;5120528;27;20043;-63
2023/11/04 05:52:43;;;;;;;6.57;3.72;;;;;;;14.96;100.00;98274.03;5120230;27;20046;-63
2023/11/04 05:55:11;;;;;;;6.07;3.25;;;;;;;15.00;100.00;98260.03;5120576;27;20038;-64
2023/11/04 05:57:37;;;;;;;6.38;3.72;;;;;;;15.12;100.00;98259.28;5120222;27;20035;-64
2023/11/04 06:00:11;;;;;;;6.80;3.70;;;;;;;15.21;100.00;98271.25;5121458;27;20213;-64
2023/11/04 06:02:43;;;;;;;;;;;;;;;15.29;100.00;98254.91;5120987;27;20224;-64
2023/11/04 06:05:09;;;;;;;7.57;3.60;;;;;;;15.29;100.00;98233.56;5121430;27;19956;-64
2023/11/04 06:07:35;;;;;;;7.05;4.20;;;;;;;15.26;100.00;98210.03;5120943;27;20397;-63
2023/11/04 06:10:01;;;;;;;5.88;3.53;;;;;;;15.29;100.00;98193.56;5121327;27;20039;-64
2023/11/04 06:12:27;;;;;;;5.70;3.25;;;;;;;15.33;100.00;98202.75;5120108;27;20031;-64
2023/11/04 06:14:52;;;;;;;7.07;3.80;;;;;;;15.39;100.00;98214.34;5121183;27;20043;-64
2023/11/04 06:17:17;;;;;;;5.28;4.18;;;;;;;15.30;100.00;98219.19;5120150;27;20044;-64
2023/11/04 06:19:43;;;;;;;6.88;3.55;;;;;;;15.29;100.00;98209.56;5119775;27;20027;-63
2023/11/04 06:22:08;;;;;;;7.47;3.30;;;;;;;15.30;100.00;98211.19;5119556;27;20060;-64
2023/11/04 06:24:38;;;;;;;4.97;3.17;;;;;;;15.37;100.00;98195.09;5119922;27;20376;-63
2023/11/04 06:27:04;;;;;;;6.43;4.15;;;;;;;15.43;100.00;98194.97;5121105;27;20148;-63
2023/11/04 06:29:30;;;;;;;6.05;3.83;;;;;;;15.42;100.00;98195.22;5120099;27;20030;-63
2023/11/04 06:31:55;;;;;;;8.00;3.83;;;;;;;15.30;100.00;98200.53;5119966;27;20035;-63
2023/11/04 06:34:21;;;;;;;7.00;3.80;;;;;;;15.34;100.00;98205.19;5122055;27;20291;-64
2023/11/04 06:36:46;;;;;;;7.25;3.67;;;;;;;15.42;100.00;98219.22;5121395;27;20032;-64
2023/11/04 06:39:12;;;;;;;7.75;3.75;;;;;;;15.68;100.00;98234.03;5121252;27;20039;-64
2023/11/04 06:41:38;;;;;;;6.35;3.65;;;;;;;15.84;100.00;98238.69;5120837;27;20046;-64
2023/11/04 06:44:03;;;;;;;5.88;3.53;;;;;;;15.93;100.00;98255.97;5120154;27;20032;-64
2023/11/04 06:46:29;;;;;;;7.45;4.53;;;;;;;15.94;100.00;98279.75;5121039;27;20206;-64
2023/11/04 06:48:55;;;;;;;6.97;4.50;;;;;;;15.96;100.00;98288.34;5120741;27;20568;-64
2023/11/04 06:51:21;;;;;;;12.57;8.63;;;;;;;16.02;100.00;98297.28;5102210;28;20039;-64
2023/11/04 06:53:47;;;;;;;31.88;26.27;;;;;;;16.02;100.00;98309.81;5120369;27;20120;-64
2023/11/04 06:56:13;;;;;;;13.05;6.75;;;;;;;16.13;100.00;98330.38;5119262;27;20665;-63
2023/11/04 06:58:39;;;;;;;19.23;17.15;;;;;;;15.85;100.00;98329.19;5118438;27;20042;-63
2023/11/04 07:01:05;;;;;;;13.90;9.07;;;;;;;16.00;100.00;98363.44;5119595;27;20020;-64
2023/11/04 07:03:30;;;;;;;8.75;7.57;;;;;;;15.95;100.00;98420.22;5118697;27;20365;-64
2023/11/04 07:05:56;;;;;;;6.90;3.60;;;;;;;15.97;100.00;98510.75;5118950;27;20040;-64
2023/11/04 07:08:22;;;;;;;6.88;3.97;;;;;;;15.98;100.00;98509.69;5119123;27;20031;-64
2023/11/04 07:10:48;;;;;;;4.47;3.60;;;;;;;15.82;100.00;98318.16;5119936;27;20102;-65
2023/11/04 07:13:14;;;;;;;6.55;3.38;;;;;;;15.83;100.00;98224.53;5121386;27;20042;-63
2023/11/04 07:15:44;;;;;;;7.20;4.10;;;;;;;15.86;100.00;98229.41;5120245;27;20156;-64
2023/11/04 07:18:11;;;;;;;5.90;3.78;;;;;;;15.95;100.00;98260.03;5119290;27;20094;-64
2023/11/04 07:20:39;;;;;;;6.53;4.93;;;;;;;16.00;100.00;98286.03;5100472;28;20241;-63
2023/11/04 07:23:07;;;;;;;8.20;4.70;;;;;;;16.11;100.00;98436.59;5119741;27;20035;-64
2023/11/04 07:25:34;;;;;;;9.48;6.32;;;;;;;16.18;100.00;98435.47;5118371;27;20036;-64
2023/11/04 07:27:59;;;;;;;8.40;3.47;;;;;;;15.73;100.00;98314.22;5110244;27;20069;-64
2023/11/04 07:30:25;;;;;;;5.95;4.10;;;;;;;15.96;100.00;98299.03;5119498;27;20031;-64
2023/11/04 07:32:51;;;;;;;5.45;3.03;;;;;;;16.12;100.00;98316.22;5119677;27;20044;-64
2023/11/04 07:35:16;;;;;;;5.63;2.75;;;;;;;16.18;100.00;98311.81;5120213;27;20065;-64
2023/11/04 07:37:42;;;;;;;6.43;2.65;;;;;;;16.23;100.00;98287.88;5119475;27;20043;-64
2023/11/04 07:40:08;;;;;;;4.53;2.05;;;;;;;16.21;100.00;98295.31;5120874;27;20032;-63
2023/11/04 07:42:34;;;;;;;4.88;2.05;;;;;;;16.32;100.00;98307.84;5119511;27;20050;-64
2023/11/04 07:45:00;;;;;;;7.22;3.08;;;;;;;16.38;100.00;98300.75;5118908;27;20274;-65
2023/11/04 07:47:25;;;;;;;3.50;1.92;;;;;;;16.36;100.00;98305.50;5119223;27;20071;-64
2023/11/04 07:49:51;;;;;;;4.60;2.15;;;;;;;16.38;100.00;98301.56;5120459;27;20030;-64
2023/11/04 07:52:17;;;;;;;9.55;2.63;;;;;;;16.47;100.00;98267.28;5118581;27;20040;-63
2023/11/04 07:54:43;;;;;;;4.47;2.00;;;;;;;16.58;100.00;98251.22;5120340;27;20019;-64
2023/11/04 07:57:08;;;;;;;5.93;2.08;;;;;;;16.58;100.00;98245.06;5119323;27;20023;-64
2023/11/04 07:59:33;;;;;;;3.67;1.98;;;;;;;16.57;100.00;98230.91;5118750;27;20045;-63
2023/11/04 08:01:59;;;;;;;2.65;1.95;;;;;;;16.76;100.00;98217.41;5119692;27;20027;-64
2023/11/04 08:04:26;;;;;;;4.32;1.42;;;;;;;16.73;100.00;98204.53;5120063;27;20229;-64
2023/11/04 08:06:51;;;;;;;2.25;1.20;;;;;;;16.76;100.00;98201.38;5119995;27;20077;-64
2023/11/04 08:09:18;;;;;;;2.20;1.30;;;;;;;16.72;100.00;98192.22;5119402;27;20221;-65
2023/11/04 08:11:43;;;;;;;1.92;1.33;;;;;;;16.72;100.00;98182.31;5119935;27;20035;-64
2023/11/04 08:14:09;;;;;;;2.55;1.45;;;;;;;16.73;100.00;98159.91;5120061;27;20324;-64
2023/11/04 08:16:34;;;;;;;2.25;1.50;;;;;;;16.69;100.00;98172.13;5119055;27;20326;-64
2023/11/04 08:19:00;;;;;;;2.47;1.42;;;;;;;16.64;100.00;98176.50;5118111;27;20176;-64
2023/11/04 08:21:29;;;;;;;3.88;1.35;;;;;;;16.56;100.00;98113.56;5118113;27;20053;-64
2023/11/04 08:23:57;;;;;;;2.50;1.38;;;;;;;16.55;100.00;98093.22;5118427;27;20023;-64
2023/11/04 08:26:22;;;;;;;1.90;1.50;;;;;;;16.54;100.00;98107.66;5118892;27;20055;-64
2023/11/04 08:28:51;;;;;;;3.08;1.63;;;;;;;16.55;100.00;98098.56;5119977;27;20019;-64
2023/11/04 08:31:17;;;;;;;4.80;1.73;;;;;;;16.60;100.00;98077.28;5118310;27;20054;-64
2023/11/04 08:33:43;;;;;;;3.30;1.73;;;;;;;16.64;100.00;98082.97;5117647;27;20030;-64
2023/11/04 08:36:08;;;;;;;4.32;1.63;;;;;;;16.65;100.00;98100.66;5118505;27;20031;-64
2023/11/04 08:38:34;;;;;;;13.25;8.35;;;;;;;16.78;100.00;98121.75;5117984;27;20065;-64
2023/11/04 08:40:59;;;;;;;15.60;9.25;;;;;;;16.89;100.00;98140.41;5118078;28;20028;-63
2023/11/04 08:43:25;;;;;;;9.63;6.25;;;;;;;17.04;100.00;98155.06;5117745;28;20540;-64
2023/11/04 08:45:51;;;;;;;15.75;7.53;;;;;;;17.12;100.00;98176.88;5117388;27;20089;-64
2023/11/04 08:48:16;;;;;;;8.75;3.83;;;;;;;17.16;100.00;98190.59;5118550;27;20042;-64
2023/11/04 08:50:42;;;;;;;8.50;7.80;;;;;;;16.95;100.00;98159.19;5118195;27;20027;-64
2023/11/04 08:53:07;;;;;;;9.25;8.10;;;;;;;17.05;100.00;98157.50;5117661;27;20043;-64
2023/11/04 08:55:33;;;;;;;4.50;3.40;;;;;;;17.08;100.00;98167.72;5117460;27;20031;-64
2023/11/04 08:57:58;;;;;;;4.40;2.30;;;;;;;17.07;100.00;98186.69;5118774;27;20031;-64
2023/11/04 09:00:23;;;;;;;4.95;2.97;;;;;;;17.05;100.00;98258.31;5118201;28;20291;-64
2023/11/04 09:02:49;;;;;;;4.95;2.95;;;;;;;16.93;100.00;98378.69;5118155;28;20031;-64
2023/11/04 09:05:16;;;;;;;11.45;3.17;;;;;;;16.75;100.00;98408.22;5118299;28;20033;-64
2023/11/04 09:07:41;;;;;;;12.88;6.07;;;;;;;16.47;100.00;98302.81;5118081;28;20088;-64
2023/11/04 09:10:07;;;;;;;8.65;6.47;;;;;;;16.09;100.00;98281.97;5118937;28;20337;-63
2023/11/04 09:12:32;;;;;;;8.25;4.60;;;;;;;16.03;100.00;98288.22;5118196;28;20031;-64
2023/11/04 09:14:58;;;;;;;8.82;5.57;;;;;;;15.82;100.00;98272.78;5118544;28;20047;-63
2023/11/04 09:17:23;;;;;;;4.22;2.10;;;;;;;15.92;100.00;98369.94;5118611;28;20035;-64
2023/11/04 09:19:49;;;;;;;9.73;5.35;;;;;;;15.93;100.00;98443.66;5117731;28;20039;-64
2023/11/04 09:46:09;;;;;;;4.50;2.30;;;;;;;15.38;100.00;98250.88;5114062;27;20659;-65
2023/11/04 09:48:37;;;;;;;3.97;1.55;;;;;;;15.33;100.00;98224.06;5104195;28;20033;-65
2023/11/04 09:51:06;;;;;;;2.50;1.50;;;;;;;15.19;100.00;98185.34;5096498;28;20028;-66
2023/11/04 09:53:32;;;;;;;3.35;1.25;;;;;;;15.17;100.00;98172.22;5103851;28;20099;-65
2023/11/04 09:55:58;;;;;;;2.75;1.63;;;;;;;15.14;100.00;98082.03;5103077;28;20051;-66
2023/11/04 09:58:25;;;;;;;2.90;0.93;;;;;;;15.15;100.00;98006.34;5102370;28;20032;-66
2023/11/04 10:00:51;;;;;;;2.72;0.50;;;;;;;15.66;100.00;97980.78;5099785;28;20086;-63
2023/11/04 10:03:17;;;;;;;1.70;0.80;;;;;;;15.68;100.00;97876.50;5101450;28;20032;-62
2023/11/04 10:05:44;;;;;;;1.90;0.45;;;;;;;16.41;100.00;97865.66;5096598;28;20095;-64
2023/11/04 10:08:11;;;;;;;1.35;0.82;;;;;;;16.48;100.00;97906.38;5089832;28;20333;-63
2023/11/04 10:10:36;;;;;;;3.67;1.05;;;;;;;16.36;100.00;97875.47;5106594;28;20048;-63
2023/11/04 10:13:02;;;;;;;2.20;0.80;;;;;;;16.20;100.00;97813.81;5094608;28;20059;-63
2023/11/04 10:15:27;;;;;;;4.45;2.78;;;;;;;16.32;100.00;97788.88;5104388;28;20139;-63
2023/11/04 10:17:54;;;;;;;1.48;1.17;;;;;;;16.46;100.00;97758.88;5103555;28;20250;-66
2023/11/04 10:20:20;;;;;;;3.85;2.50;;;;;;;16.51;100.00;97776.84;5102170;28;20086;-63
2023/11/04 10:22:46;;;;;;;3.72;1.40;;;;;;;16.47;100.00;97757.81;5102336;28;20032;-63
2023/11/04 10:25:12;;;;;;;1.00;0.90;;;;;;;16.36;100.00;97781.97;5098819;28;20036;-66
2023/11/04 10:27:38;;;;;;;4.43;2.58;;;;;;;16.19;100.00;97800.72;5100474;28;20379;-63
2023/11/04 10:30:06;;;;;;;1.95;1.05;;;;;;;16.11;100.00;97807.28;5102483;28;20047;-66
2023/11/04 10:32:36;;;;;;;2.63;0.90;;;;;;;16.16;100.00;97823.38;5102153;28;20357;-66
2023/11/04 10:35:11;;;;;;;3.20;1.10;;;;;;;16.12;100.00;97842.78;5098768;28;20032;-63
2023/11/04 10:37:37;;;;;;;1.83;0.65;;;;;;;15.94;100.00;97874.03;5093074;28;20039;-62
2023/11/04 10:40:07;;;;;;;3.42;0.93;;;;;;;15.78;100.00;97882.81;5100475;28;20048;-66
2023/11/04 10:42:44;;;;;;;2.55;1.02;;;;;;;15.62;100.00;97872.94;5099112;28;20418;-63
2023/11/04 10:45:20;;;;;;;2.28;1.20;;;;;;;15.59;100.00;97892.84;5100192;28;20053;-66
2023/11/04 10:47:55;;;;;;;4.30;1.05;;;;;;;15.58;100.00;97917.91;5085563;28;20032;-63
2023/11/04 10:50:34;;;;;;;3.72;0.90;;;;;;;15.60;100.00;97917.69;5086115;28;20071;-66
2023/11/04 10:53:31;;;;;;;1.60;1.23;;;;;;;15.59;100.00;97900.88;5078618;28;20028;-63
2023/11/04 10:56:08;;;;;;;0.85;0.70;;;;;;;15.56;100.00;97877.31;5086817;28;20051;-63
2023/11/04 10:58:45;;;;;;;1.55;0.65;;;;;;;15.59;100.00;97846.69;5086193;28;20041;-62
2023/11/04 11:01:12;;;;;;;2.10;0.90;;;;;;;15.62;100.00;97827.56;5077359;28;20028;-66
2023/11/04 11:03:37;;;;;;;1.55;0.95;;;;;;;15.64;100.00;97823.63;5083049;28;20353;-66
2023/11/04 11:06:04;;;;;;;1.58;0.90;;;;;;;15.68;100.00;97821.28;5092419;28;20185;-63
2023/11/04 11:08:30;;;;;;;2.08;1.05;;;;;;;15.74;100.00;97857.66;5081462;28;20121;-66
2023/11/04 11:11:01;;;;;;;2.45;1.00;;;;;;;15.83;100.00;97892.78;5089711;28;20028;-63
2023/11/04 11:13:32;;;;;;;2.95;0.98;;;;;;;15.92;100.00;97912.69;5081388;28;20064;-64
2023/11/04 11:15:58;;;;;;;2.67;1.10;;;;;;;16.01;100.00;97929.91;5086199;28;20353;-66
2023/11/04 11:18:29;;;;;;;4.93;3.03;;;;;;;16.14;100.00;97942.16;5090956;28;20110;-63
2023/11/04 11:21:07;;;;;;;7.22;4.55;;;;;;;16.08;100.00;97906.53;5099210;28;20316;-63
2023/11/04 11:23:34;;;;;;;4.18;2.50;;;;;;;16.17;100.00;97934.47;5099021;28;20051;-63
2023/11/04 11:26:07;;;;;;;4.97;3.00;;;;;;;16.19;100.00;97961.75;5089185;28;20352;-63
2023/11/04 11:28:39;;;;;;;;;;;;;;;16.13;100.00;97980.59;5090840;28;20036;-66
2023/11/04 11:31:08;;;;;;;5.03;2.47;;;;;;;16.01;100.00;97974.50;5088862;28;20215;-66
2023/11/04 11:33:33;;;;;;;5.55;2.35;;;;;;;16.04;100.00;98014.06;5076066;28;20036;-66
2023/11/04 11:36:07;;;;;;;4.28;2.20;;;;;;;15.96;100.00;98039.28;5087211;28;20329;-66
2023/11/04 11:38:34;;;;;;;4.20;2.10;;;;;;;15.91;100.00;98015.16;5084263;28;20290;-66
2023/11/04 11:41:08;;;;;;;3.28;1.85;;;;;;;15.89;100.00;98020.72;5088321;28;20109;-63